Time;durP1;ratioP1;P1;durP2;ratioP2;P2;SDS_P1;SDS_P2;PMS_P1;PMS_P2;Temp;Humidity;BMP_temperature;BMP_pressure;BME280_temperature;BME280_humidity;BME280_pressure;Samples;Min_cycle;Max_cycle;Signal;HPM_P1;HPM_P2
2022/03/17 00:00:09;;;;;;;;;7.67;7.67;;;;;12.70;64.06;101904.44;5079577;27;45275;-44
2022/03/17 00:02:36;;;;;;;;;10.33;6.67;;;;;12.68;63.24;101916.22;5079803;27;45542;-43
2022/03/17 00:05:02;;;;;;;;;9.67;8.00;;;;;12.67;63.40;101917.19;5079271;27;45449;-47
2022/03/17 00:07:28;;;;;;;;;8.00;6.33;;;;;12.64;63.36;101917.44;5079397;27;45429;-46
2022/03/17 00:09:54;;;;;;;;;9.33;7.33;;;;;12.65;63.63;101919.16;5079899;27;45389;-48
2022/03/17 00:12:19;;;;;;;;;8.33;6.67;;;;;12.61;63.61;101912.41;5079743;27;45499;-46
2022/03/17 00:14:45;;;;;;;;;6.67;6.67;;;;;12.63;63.09;101931.78;5079066;28;46090;-43
2022/03/17 00:17:10;;;;;;;;;7.00;7.00;;;;;12.60;63.38;101934.72;5079378;27;45319;-46
2022/03/17 00:19:36;;;;;;;;;10.33;9.00;;;;;12.57;63.36;101933.16;5079219;27;45646;-43
2022/03/17 00:22:06;;;;;;;;;14.67;10.67;;;;;12.52;63.73;101916.69;5079449;27;45317;-44
2022/03/17 00:24:32;;;;;;;;;4.67;4.67;;;;;12.54;63.36;101928.06;5078959;27;46283;-44
2022/03/17 00:26:59;;;;;;;;;8.67;8.67;;;;;12.53;63.74;101930.88;5078656;27;45543;-45
2022/03/17 00:29:24;;;;;;;;;10.33;10.33;;;;;12.48;63.61;101937.47;5079075;27;45409;-46
2022/03/17 00:31:50;;;;;;;;;13.33;11.00;;;;;12.50;63.38;101942.66;5079028;28;45509;-44
2022/03/17 00:34:15;;;;;;;;;13.00;9.67;;;;;12.51;63.64;101949.69;5078675;27;45438;-46
2022/03/17 00:36:40;;;;;;;;;14.00;11.33;;;;;12.51;63.51;101959.50;5078828;27;45429;-45
2022/03/17 00:39:08;;;;;;;;;11.00;7.67;;;;;12.50;64.21;101964.00;5078916;27;45617;-45
2022/03/17 00:41:34;;;;;;;;;11.00;11.00;;;;;12.40;63.71;101949.75;5079096;27;45340;-46
2022/03/17 00:43:59;;;;;;;;;13.33;13.00;;;;;12.47;64.01;101959.78;5078374;27;45440;-46
2022/03/17 00:46:25;;;;;;;;;13.00;12.00;;;;;12.43;63.60;101954.81;5079060;28;46256;-46
2022/03/17 00:48:51;;;;;;;;;14.33;13.00;;;;;12.42;63.77;101966.47;5078955;27;45448;-49
2022/03/17 00:51:16;;;;;;;;;13.00;12.00;;;;;12.40;64.14;101979.13;5078816;27;45429;-46
2022/03/17 00:53:42;;;;;;;;;19.67;14.00;;;;;12.37;63.95;101984.69;5078678;27;45369;-44
2022/03/17 00:56:07;;;;;;;;;16.00;15.33;;;;;12.32;64.57;101981.56;5078390;27;45809;-46
2022/03/17 00:58:33;;;;;;;;;19.00;15.00;;;;;12.36;64.61;101985.69;5078589;28;45429;-44
2022/03/17 01:00:58;;;;;;;;;14.67;14.67;;;;;12.36;64.13;101988.34;5078262;27;45370;-43
2022/03/17 01:03:24;;;;;;;;;20.33;16.33;;;;;12.35;64.27;101997.34;5078236;27;47264;-44
2022/03/17 01:05:52;;;;;;;;;15.00;15.00;;;;;12.34;64.72;102000.97;5078536;27;45387;-43
2022/03/17 01:08:17;;;;;;;;;18.33;14.33;;;;;12.34;64.72;102011.63;5078367;27;45343;-43
2022/03/17 01:10:43;;;;;;;;;19.00;15.67;;;;;12.30;64.97;101999.50;5078509;27;45398;-44
2022/03/17 01:13:08;;;;;;;;;25.33;19.67;;;;;12.30;64.41;102002.19;5078704;27;46245;-44
2022/03/17 01:15:34;;;;;;;;;22.00;18.00;;;;;12.29;64.85;102000.50;5078607;27;45381;-43
2022/03/17 01:17:59;;;;;;;;;24.67;18.33;;;;;12.25;65.15;102007.91;5078876;27;45692;-44
2022/03/17 01:20:25;;;;;;;;;22.00;21.00;;;;;12.26;65.15;102011.41;5078611;27;45372;-42
2022/03/17 01:22:50;;;;;;;;;23.00;18.00;;;;;12.23;65.21;102007.19;5077768;27;46132;-43
2022/03/17 01:25:16;;;;;;;;;22.33;20.00;;;;;12.23;65.30;102015.19;5078177;27;45453;-42
2022/03/17 01:27:42;;;;;;;;;24.67;20.00;;;;;12.17;65.05;102027.22;5078258;27;45409;-42
2022/03/17 01:30:09;;;;;;;;;28.33;17.33;;;;;12.18;65.72;102022.75;5078135;27;45502;-42
2022/03/17 01:32:37;;;;;;;;;25.00;21.00;;;;;12.16;65.64;102025.50;5077934;27;46400;-42
2022/03/17 01:35:03;;;;;;;;;25.67;17.67;;;;;12.14;65.40;102032.81;5077640;27;45316;-42
2022/03/17 01:37:29;;;;;;;;;23.67;18.00;;;;;12.05;65.94;102020.22;5077964;27;45454;-42
2022/03/17 01:39:54;;;;;;;;;20.67;16.33;;;;;12.08;65.62;102033.28;5077964;27;45738;-42
2022/03/17 01:42:19;;;;;;;;;18.67;18.00;;;;;12.12;65.75;102048.09;5077374;27;46200;-43
2022/03/17 01:44:45;;;;;;;;;24.33;19.67;;;;;12.09;66.19;102047.47;5077779;27;45314;-42
2022/03/17 01:47:28;;;;;;;;;22.33;18.67;;;;;12.07;66.19;102039.59;5077838;27;45204;-43
2022/03/17 01:49:58;;;;;;;;;25.33;18.33;;;;;12.11;65.98;102045.53;5078056;27;45266;-43
2022/03/17 01:52:25;;;;;;;;;23.33;19.33;;;;;12.07;66.04;102042.28;5077652;27;46122;-42
2022/03/17 01:54:51;;;;;;;;;26.00;17.33;;;;;12.06;66.08;102051.25;5077468;28;45344;-42
2022/03/17 01:57:17;;;;;;;;;23.33;20.33;;;;;12.07;65.97;102052.09;5077455;27;45380;-42
2022/03/17 01:59:42;;;;;;;;;26.67;21.67;;;;;12.07;65.95;102060.94;5077817;27;45421;-41
2022/03/17 02:02:10;;;;;;;;;26.33;22.00;;;;;12.06;66.20;102051.25;5077205;27;45480;-41
2022/03/17 02:04:36;;;;;;;;;26.33;19.33;;;;;12.07;66.13;102057.44;5077527;28;45417;-43
2022/03/17 02:07:05;;;;;;;;;23.33;17.00;;;;;12.10;65.64;102062.53;5077323;27;45302;-41
2022/03/17 02:09:33;;;;;;;;;21.67;18.33;;;;;12.08;66.03;102054.63;5077612;27;45575;-44
2022/03/17 02:14:54;;;;;;;;;27.67;20.00;;;;;12.05;65.94;102065.56;5077264;28;45327;-43
2022/03/17 02:17:22;;;;;;;;;19.67;16.33;;;;;12.04;65.80;102071.84;5077175;27;45253;-41
2022/03/17 02:19:48;;;;;;;;;22.00;19.33;;;;;12.06;65.56;102080.59;5076319;27;45510;-42
2022/03/17 02:22:19;;;;;;;;;21.67;19.67;;;;;12.07;66.17;102082.28;5076805;27;47163;-43
2022/03/17 02:27:41;;;;;;;;;25.33;18.33;;;;;12.08;65.95;102101.81;5077272;28;45339;-42
2022/03/17 02:30:09;;;;;;;;;26.33;20.33;;;;;12.08;66.27;102105.31;5077158;27;45471;-43
2022/03/17 02:32:35;;;;;;;;;22.00;20.33;;;;;12.07;65.95;102108.13;5076895;27;46065;-44
2022/03/17 02:35:09;;;;;;;;;20.33;19.00;;;;;12.06;66.11;102099.28;5077078;27;45341;-42
2022/03/17 02:37:35;;;;;;;;;22.67;18.33;;;;;12.08;65.95;102107.13;5076997;28;45421;-43
2022/03/17 02:40:01;;;;;;;;;23.00;19.33;;;;;12.07;66.38;102094.78;5077305;28;45357;-43
2022/03/17 02:42:30;;;;;;;;;22.67;20.00;;;;;12.02;66.18;102095.16;5075098;27;46088;-42
2022/03/17 02:44:56;;;;;;;;;27.00;21.33;;;;;12.05;65.68;102086.91;5075260;28;45471;-42
2022/03/17 02:47:21;;;;;;;;;19.00;17.33;;;;;12.04;65.46;102087.84;5076925;27;45494;-43
2022/03/17 02:49:47;;;;;;;;;27.67;20.67;;;;;12.05;66.06;102102.91;5076947;27;45345;-42
2022/03/17 02:52:13;;;;;;;;;21.33;18.00;;;;;12.05;65.98;102124.25;5076673;27;46314;-42
2022/03/17 02:54:38;;;;;;;;;27.33;20.67;;;;;12.05;65.96;102134.91;5076574;27;45354;-44
2022/03/17 02:57:06;;;;;;;;;26.33;17.00;;;;;12.06;65.76;102125.09;5076441;27;45512;-43
2022/03/17 02:59:32;;;;;;;;;17.67;16.67;;;;;12.05;65.51;102128.72;5077099;27;45214;-43
2022/03/17 03:01:57;;;;;;;;;18.33;15.33;;;;;12.04;65.69;102121.69;5076406;27;46326;-43
2022/03/17 03:04:23;;;;;;;;;19.67;18.33;;;;;12.00;65.46;102123.75;5076607;27;45425;-42
2022/03/17 03:06:48;;;;;;;;;20.33;17.67;;;;;11.92;65.78;102118.16;5076625;28;45204;-43
2022/03/17 03:09:14;;;;;;;;;17.00;14.33;;;;;11.98;65.17;102131.88;5076784;27;45232;-43
2022/03/17 03:11:39;;;;;;;;;17.00;15.33;;;;;11.96;65.04;102143.63;5076164;27;46278;-43
2022/03/17 03:14:09;;;;;;;;;26.00;16.67;;;;;11.91;64.67;102143.16;5076460;27;45524;-46
2022/03/17 03:16:37;;;;;;;;;17.00;15.00;;;;;11.85;64.33;102146.31;5076760;27;45452;-45
2022/03/17 03:19:03;;;;;;;;;15.33;14.00;;;;;11.79;64.27;102136.94;5076531;27;45388;-47
2022/03/17 03:21:29;;;;;;;;;14.00;14.00;;;;;11.73;64.50;102158.75;5076183;27;45822;-44
2022/03/17 03:23:54;;;;;;;;;18.33;16.00;;;;;11.66;64.53;102147.69;5077397;28;45350;-46
2022/03/17 03:26:19;;;;;;;;;16.33;12.33;;;;;11.61;64.41;102149.88;5079800;27;45276;-46
2022/03/17 03:28:45;;;;;;;;;18.33;18.00;;;;;11.59;64.52;102148.31;5080256;27;45335;-44
2022/03/17 03:31:10;;;;;;;;;14.67;13.67;;;;;11.54;64.40;102148.66;5079833;27;45617;-46
2022/03/17 03:33:36;;;;;;;;;18.67;15.67;;;;;11.51;64.51;102159.56;5079732;27;45362;-47
2022/03/17 03:38:46;;;;;;;;;19.67;14.67;;;;;11.44;64.77;102171.66;5079847;27;45428;-43
2022/03/17 03:41:12;;;;;;;;;16.67;14.67;;;;;11.38;64.77;102172.97;5079563;27;47180;-44
2022/03/17 03:43:37;;;;;;;;;12.67;12.00;;;;;11.34;65.19;102179.50;5079553;27;45460;-46
2022/03/17 03:46:02;;;;;;;;;16.33;14.67;;;;;11.33;64.79;102185.78;5079688;27;45251;-46
2022/03/17 03:48:28;;;;;;;;;23.33;16.00;;;;;11.33;64.87;102188.44;5079823;27;45437;-43
2022/03/17 03:50:53;;;;;;;;;13.33;13.00;;;;;11.23;65.03;102182.97;5080391;27;45247;-45
2022/03/17 03:53:18;;;;;;;;;14.00;13.33;;;;;11.32;64.93;102208.06;5079014;27;45372;-46
2022/03/17 03:55:44;;;;;;;;;18.33;16.33;;;;;11.35;64.82;102204.34;5080020;27;45248;-44
2022/03/17 03:58:09;;;;;;;;;14.33;13.67;;;;;11.35;64.79;102215.84;5079922;27;45564;-45
2022/03/17 04:00:35;;;;;;;;;19.33;16.00;;;;;11.36;64.72;102220.19;5079121;27;45410;-43
2022/03/17 04:03:03;;;;;;;;;11.67;11.00;;;;;11.41;64.34;102225.16;5079313;27;45361;-43
2022/03/17 04:05:34;;;;;;;;;22.67;15.33;;;;;11.36;64.14;102217.53;5078031;28;45348;-44
2022/03/17 04:08:01;;;;;;;;;17.67;14.33;;;;;11.37;64.43;102229.88;5079300;27;45435;-47
2022/03/17 04:10:27;;;;;;;;;19.67;12.67;;;;;11.36;63.93;102227.34;5079231;27;46017;-43
2022/03/17 04:12:54;;;;;;;;;12.33;12.33;;;;;11.37;63.66;102235.22;5078664;27;45275;-45
2022/03/17 04:15:19;;;;;;;;;13.67;12.67;;;;;11.26;63.59;102235.19;5079338;27;45231;-46
2022/03/17 04:17:45;;;;;;;;;16.33;12.67;;;;;11.31;63.92;102250.81;5079214;27;45678;-45
2022/03/17 04:20:11;;;;;;;;;12.67;12.67;;;;;11.26;63.54;102250.31;5079048;27;45495;-43
2022/03/17 04:22:38;;;;;;;;;14.67;12.33;;;;;11.09;63.11;102243.56;5078670;27;45385;-43
2022/03/17 04:25:05;;;;;;;;;16.00;11.00;;;;;11.17;62.73;102270.50;5079002;27;45413;-44
2022/03/17 04:27:30;;;;;;;;;12.33;11.67;;;;;11.10;62.66;102266.56;5079156;27;45458;-47
2022/03/17 04:29:55;;;;;;;;;5.67;5.67;;;;;10.97;63.62;102258.63;5078665;27;46155;-46
2022/03/17 04:32:22;;;;;;;;;12.00;9.00;;;;;10.99;62.93;102278.84;5078880;27;45393;-43
2022/03/17 04:34:47;;;;;;;;;11.00;9.67;;;;;10.97;63.28;102279.94;5078777;27;45261;-46
2022/03/17 04:37:13;;;;;;;;;11.00;8.33;;;;;10.72;62.90;102251.59;5078501;27;45354;-43
2022/03/17 04:39:38;;;;;;;;;11.33;10.00;;;;;10.77;63.22;102270.72;5078797;27;45294;-48
2022/03/17 04:42:04;;;;;;;;;12.00;10.00;;;;;10.87;63.35;102300.19;5078274;27;45414;-46
2022/03/17 04:44:29;;;;;;;;;11.33;8.33;;;;;10.80;63.51;102294.47;5078640;27;45381;-46
2022/03/17 04:46:55;;;;;;;;;10.33;10.00;;;;;10.81;62.95;102309.47;5078644;27;45215;-43
2022/03/17 04:49:20;;;;;;;;;11.00;8.00;;;;;10.77;63.19;102308.00;5078653;27;46372;-44
2022/03/17 04:51:45;;;;;;;;;8.00;8.00;;;;;10.65;63.15;102298.22;5078630;27;45321;-47
2022/03/17 04:54:11;;;;;;;;;7.67;7.67;;;;;10.71;62.92;102311.09;5078761;27;45919;-46
2022/03/17 04:56:36;;;;;;;;;6.00;6.00;;;;;10.75;63.27;102320.56;5077567;28;45456;-43
2022/03/17 04:59:02;;;;;;;;;5.00;5.00;;;;;10.72;62.67;102318.13;5078492;27;45255;-44
2022/03/17 05:01:27;;;;;;;;;15.00;7.00;;;;;10.76;62.57;102327.59;5078591;27;45319;-43
2022/03/17 05:03:53;;;;;;;;;9.00;8.00;;;;;10.79;63.13;102327.38;5078627;27;45444;-42
2022/03/17 05:06:19;;;;;;;;;10.33;8.00;;;;;10.79;62.75;102332.72;5078580;27;45460;-44
2022/03/17 05:08:44;;;;;;;;;10.00;8.00;;;;;10.78;62.42;102330.13;5078080;27;46056;-43
2022/03/17 05:11:10;;;;;;;;;10.00;6.00;;;;;10.64;62.10;102316.00;5078516;27;45456;-43
2022/03/17 05:13:37;;;;;;;;;6.00;6.00;;;;;10.73;62.21;102344.63;5078165;27;45390;-43
2022/03/17 05:16:06;;;;;;;;;11.00;8.00;;;;;10.68;62.48;102341.44;5078631;27;45384;-43
2022/03/17 05:18:33;;;;;;;;;10.33;7.33;;;;;10.67;62.11;102347.72;5078167;27;45469;-45
2022/03/17 05:20:58;;;;;;;;;8.00;6.33;;;;;10.68;61.93;102349.41;5078014;28;45319;-42
2022/03/17 05:23:24;;;;;;;;;15.00;8.00;;;;;10.69;62.08;102350.28;5078272;27;45465;-43
2022/03/17 05:25:50;;;;;;;;;9.33;6.67;;;;;10.66;62.17;102346.03;5078273;27;45374;-45
2022/03/17 05:28:16;;;;;;;;;9.33;5.00;;;;;10.63;62.58;102367.53;5078020;27;45892;-43
2022/03/17 05:30:43;;;;;;;;;9.00;6.33;;;;;10.61;62.92;102360.59;5077888;27;45468;-45
2022/03/17 05:33:11;;;;;;;;;9.33;5.67;;;;;10.48;62.24;102352.63;5077959;27;45354;-44
2022/03/17 05:35:40;;;;;;;;;6.33;5.00;;;;;10.49;62.24;102362.31;5078291;27;45597;-43
2022/03/17 05:38:05;;;;;;;;;11.00;7.00;;;;;10.55;62.63;102377.84;5077595;27;45381;-42
2022/03/17 05:40:31;;;;;;;;;8.67;7.00;;;;;10.55;62.51;102385.84;5076326;27;45706;-43
2022/03/17 05:42:59;;;;;;;;;7.00;6.00;;;;;10.55;62.18;102392.97;5077833;27;45565;-43
2022/03/17 05:45:27;;;;;;;;;9.00;6.67;;;;;10.49;62.33;102376.47;5077924;27;45551;-42
2022/03/17 05:47:55;;;;;;;;;10.67;7.67;;;;;10.61;62.50;102404.03;5076500;27;46303;-42
2022/03/17 05:50:22;;;;;;;;;8.33;7.00;;;;;10.64;62.39;102408.28;5076085;28;45546;-42
2022/03/17 05:52:48;;;;;;;;;14.00;8.67;;;;;10.65;62.47;102397.53;5077650;28;45266;-42
2022/03/17 05:55:16;;;;;;;;;7.00;6.00;;;;;10.64;62.52;102403.81;5077824;27;45315;-43
2022/03/17 05:57:43;;;;;;;;;9.00;7.33;;;;;10.67;62.52;102410.75;5077374;27;45386;-42
2022/03/17 06:00:10;;;;;;;;;4.33;4.33;;;;;10.68;62.99;102423.94;5077377;27;45374;-44
2022/03/17 06:02:37;;;;;;;;;10.33;6.00;;;;;10.61;62.50;102411.16;5077367;27;45914;-44
2022/03/17 06:05:03;;;;;;;;;10.00;6.67;;;;;10.68;62.58;102431.94;5077552;27;45489;-42
2022/03/17 06:07:40;;;;;;;;;10.00;9.33;;;;;10.70;62.46;102434.47;5077113;27;45924;-43
2022/03/17 06:10:07;;;;;;;;;9.00;7.67;;;;;10.70;62.34;102430.03;5077102;27;45419;-42
2022/03/17 06:12:33;;;;;;;;;5.67;5.67;;;;;10.70;62.56;102431.81;5077487;27;45367;-43
2022/03/17 06:14:58;;;;;;;;;9.33;9.33;;;;;10.59;62.43;102418.41;5077188;27;45428;-43
2022/03/17 06:17:45;;;;;;;;;10.33;7.33;;;;;10.58;62.51;102436.19;5077349;27;46073;-45
2022/03/17 06:20:13;;;;;;;;;9.00;7.00;;;;;10.64;62.33;102449.06;5077299;27;45405;-44
2022/03/17 06:22:40;;;;;;;;;10.33;7.00;;;;;10.64;62.56;102450.88;5076940;27;45397;-43
2022/03/17 06:25:08;;;;;;;;;10.33;7.33;;;;;10.67;62.36;102459.50;5077537;27;45207;-43
2022/03/17 06:27:34;;;;;;;;;7.33;7.33;;;;;10.71;62.35;102463.66;5076809;27;47169;-43
2022/03/17 06:30:01;;;;;;;;;8.00;6.33;;;;;10.72;62.24;102461.84;5076886;27;45385;-43
2022/03/17 06:32:27;;;;;;;;;7.00;5.00;;;;;10.76;61.86;102471.34;5077361;27;45819;-42
2022/03/17 06:34:52;;;;;;;;;5.00;5.00;;;;;10.77;61.33;102478.34;5077249;27;45292;-43
2022/03/17 06:37:18;;;;;;;;;15.00;8.00;;;;;10.78;61.13;102484.53;5077150;27;45200;-42
2022/03/17 06:39:43;;;;;;;;;10.33;7.00;;;;;10.72;61.19;102486.66;5077033;27;45359;-42
2022/03/17 06:42:08;;;;;;;;;11.33;8.67;;;;;10.80;61.09;102502.09;5076979;27;45249;-43
2022/03/17 06:44:34;;;;;;;;;6.33;6.33;;;;;10.82;61.05;102502.00;5077246;27;45452;-42
2022/03/17 06:46:59;;;;;;;;;13.33;7.33;;;;;10.80;60.69;102510.09;5076848;27;45362;-43
2022/03/17 06:49:24;;;;;;;;;7.33;7.00;;;;;10.81;60.47;102513.59;5077167;27;45169;-43
2022/03/17 06:51:50;;;;;;;;;7.67;7.33;;;;;10.82;60.60;102515.31;5077145;27;45339;-43
2022/03/17 06:54:15;;;;;;;;;10.00;6.67;;;;;10.82;60.55;102525.94;5077049;27;45517;-43
2022/03/17 06:56:40;;;;;;;;;7.67;7.67;;;;;10.79;60.45;102528.81;5076904;27;45917;-43
2022/03/17 06:59:06;;;;;;;;;9.67;7.00;;;;;10.50;60.19;102481.09;5079371;27;45371;-44
2022/03/17 07:01:31;;;;;;;;;11.67;7.67;;;;;10.83;60.68;102540.97;5083694;27;45232;-43
2022/03/17 07:03:56;;;;;;;;;8.67;5.00;;;;;10.80;59.91;102543.84;5083838;27;45413;-43
2022/03/17 07:06:22;;;;;;;;;5.00;2.67;;;;;10.73;59.00;102538.09;5083585;27;47000;-42
2022/03/17 07:08:47;;;;;;;;;5.00;5.00;;;;;10.64;59.62;102544.88;5083538;27;45298;-43
2022/03/17 07:11:12;;;;;;;;;5.00;5.00;;;;;10.67;59.49;102559.81;5082348;27;45349;-44
2022/03/17 07:13:38;;;;;;;;;6.00;3.00;;;;;10.64;59.00;102552.88;5083684;27;45502;-43
2022/03/17 07:16:03;;;;;;;;;8.33;6.00;;;;;10.65;59.51;102567.03;5083176;27;45527;-45
2022/03/17 07:18:29;;;;;;;;;5.00;5.00;;;;;10.70;59.34;102575.53;5083198;27;45449;-44
2022/03/17 07:20:57;;;;;;;;;6.33;3.67;;;;;10.71;59.02;102572.81;5083482;27;45456;-42
2022/03/17 07:23:23;;;;;;;;;5.67;5.00;;;;;10.70;58.13;102579.09;5083487;27;45176;-42
2022/03/17 07:25:48;;;;;;;;;3.00;3.00;;;;;10.63;57.50;102569.78;5083107;27;47099;-44
2022/03/17 07:28:15;;;;;;;;;5.00;3.67;;;;;10.73;57.28;102586.00;5083242;27;45241;-43
2022/03/17 07:30:41;;;;;;;;;6.67;5.00;;;;;10.72;58.16;102595.78;5083019;27;45315;-43
2022/03/17 07:33:06;;;;;;;;;5.33;4.33;;;;;10.71;58.31;102587.91;5083799;27;45334;-41
2022/03/17 07:35:33;;;;;;;;;2.33;2.33;;;;;10.74;58.11;102604.53;5083381;27;47049;-43
2022/03/17 07:37:59;;;;;;;;;7.33;5.67;;;;;10.72;57.86;102601.13;5083210;27;45441;-43
2022/03/17 07:40:26;;;;;;;;;6.67;5.33;;;;;10.80;57.57;102607.75;5082133;27;45327;-43
2022/03/17 07:42:52;;;;;;;;;8.00;6.00;;;;;10.81;57.86;102610.28;5082913;27;45334;-42
2022/03/17 07:45:17;;;;;;;;;6.00;3.00;;;;;10.80;57.57;102621.91;5082454;27;46740;-45
2022/03/17 07:47:50;;;;;;;;;6.33;5.00;;;;;10.82;57.07;102619.13;5082712;27;45232;-43
2022/03/17 07:50:17;;;;;;;;;4.33;3.00;;;;;10.76;57.00;102591.13;5082898;27;45459;-44
2022/03/17 07:52:43;;;;;;;;;6.67;5.00;;;;;10.87;56.28;102606.34;5083341;27;45249;-42
2022/03/17 07:55:09;;;;;;;;;5.67;5.33;;;;;10.90;56.92;102608.81;5082636;27;47265;-45
2022/03/17 07:57:35;;;;;;;;;5.67;4.67;;;;;10.92;56.60;102628.22;5082736;27;45358;-43
2022/03/17 08:00:02;;;;;;;;;4.33;4.33;;;;;10.95;56.42;102636.00;5082842;27;45743;-47
2022/03/17 08:02:27;;;;;;;;;4.33;4.33;;;;;10.87;56.43;102625.88;5082887;27;45422;-43
2022/03/17 08:04:53;;;;;;;;;7.00;5.33;;;;;10.99;56.04;102643.66;5082474;27;45322;-46
2022/03/17 08:07:20;;;;;;;;;5.00;5.00;;;;;11.04;56.29;102646.06;5082529;27;45408;-47
2022/03/17 08:09:45;;;;;;;;;8.67;4.33;;;;;11.01;55.83;102651.56;5082112;27;45423;-48
2022/03/17 08:12:11;;;;;;;;;3.67;3.00;;;;;11.08;56.03;102655.53;5078685;27;45388;-44
2022/03/17 08:14:36;;;;;;;;;7.67;2.67;;;;;11.10;56.18;102655.44;5078900;27;45459;-43
2022/03/17 08:17:02;;;;;;;;;6.67;3.00;;;;;11.15;55.11;102663.94;5079177;27;45389;-43
2022/03/17 08:19:27;;;;;;;;;5.67;2.67;;;;;11.16;56.32;102670.97;5079392;27;45269;-45
2022/03/17 08:21:54;;;;;;;;;7.00;4.33;;;;;11.18;55.35;102677.91;5079292;27;45520;-46
2022/03/17 08:24:19;;;;;;;;;5.67;4.33;;;;;11.19;55.36;102682.28;5079101;27;46370;-45
2022/03/17 08:26:45;;;;;;;;;12.00;7.00;;;;;11.16;55.75;102678.97;5078958;27;45319;-44
2022/03/17 08:29:10;;;;;;;;;8.33;7.33;;;;;11.20;55.38;102683.13;5079296;27;45365;-47
2022/03/17 08:31:35;;;;;;;;;6.33;6.00;;;;;11.20;55.39;102685.81;5079324;27;45324;-44
2022/03/17 08:34:01;;;;;;;;;10.00;6.67;;;;;11.19;55.34;102690.28;5078777;27;46214;-46
2022/03/17 08:36:27;;;;;;;;;6.33;6.33;;;;;11.11;55.88;102675.78;5079169;27;45339;-46
2022/03/17 08:38:52;;;;;;;;;7.00;6.00;;;;;11.21;55.38;102693.72;5078899;27;45381;-46
2022/03/17 08:41:19;;;;;;;;;6.33;6.33;;;;;11.24;55.67;102704.13;5079081;27;45398;-44
2022/03/17 08:43:45;;;;;;;;;9.33;7.00;;;;;11.26;55.43;102709.38;5078667;27;46361;-47
2022/03/17 08:51:38;;;;;;;;;6.67;5.67;;;;;11.41;55.65;102726.13;5078961;27;45341;-47
2022/03/17 08:54:04;;;;;;;;;9.00;5.33;;;;;11.45;55.46;102732.97;5078324;27;45931;-46
2022/03/17 08:56:32;;;;;;;;;7.67;6.33;;;;;11.47;55.18;102733.72;5078303;27;45332;-46
2022/03/17 08:58:58;;;;;;;;;8.00;3.00;;;;;11.51;55.27;102737.91;5078813;27;45294;-46
2022/03/17 09:01:24;;;;;;;;;7.00;5.67;;;;;11.55;56.05;102742.06;5078452;27;45372;-44
2022/03/17 09:03:49;;;;;;;;;7.00;6.00;;;;;11.57;55.55;102753.47;5078597;27;46090;-44
2022/03/17 09:06:14;;;;;;;;;6.67;4.00;;;;;11.60;54.58;102755.06;5078435;27;45346;-46
2022/03/17 09:08:41;;;;;;;;;7.00;4.67;;;;;11.61;54.55;102754.09;5078674;27;45266;-47
2022/03/17 09:11:07;;;;;;;;;9.33;6.00;;;;;11.60;54.93;102761.25;5078713;27;45552;-46
2022/03/17 09:13:32;;;;;;;;;6.00;6.00;;;;;11.64;54.88;102754.75;5078008;27;48538;-46
2022/03/17 09:15:58;;;;;;;;;8.00;6.67;;;;;11.59;55.43;102738.22;5078316;27;45479;-46
2022/03/17 09:18:24;;;;;;;;;7.67;7.67;;;;;11.69;54.56;102755.28;5078333;27;45417;-43
2022/03/17 09:20:49;;;;;;;;;8.00;6.00;;;;;11.69;55.20;102760.63;5078630;27;45302;-45
2022/03/17 09:23:16;;;;;;;;;9.00;8.00;;;;;11.70;54.95;102761.47;5077924;27;45390;-46
2022/03/17 09:25:42;;;;;;;;;6.00;6.00;;;;;11.75;54.49;102764.66;5078178;27;45432;-44
2022/03/17 09:28:07;;;;;;;;;9.33;7.67;;;;;11.79;55.36;102762.66;5078220;27;45470;-43
2022/03/17 09:30:34;;;;;;;;;7.00;7.00;;;;;11.78;54.24;102768.94;5078166;27;45342;-48
2022/03/17 09:33:01;;;;;;;;;11.00;9.00;;;;;11.86;54.64;102772.84;5077966;27;45432;-44
2022/03/17 09:35:27;;;;;;;;;8.67;8.67;;;;;11.91;54.60;102777.84;5078103;27;45311;-47
2022/03/17 09:37:52;;;;;;;;;10.67;7.00;;;;;11.88;54.57;102778.94;5078087;27;45393;-48
2022/03/17 09:40:18;;;;;;;;;12.67;7.33;;;;;11.89;54.47;102790.44;5077920;27;45370;-43
2022/03/17 09:42:43;;;;;;;;;6.67;6.00;;;;;11.91;54.37;102789.38;5077717;27;45734;-45
2022/03/17 09:45:10;;;;;;;;;11.00;7.67;;;;;11.99;54.37;102780.84;5077675;27;45316;-47
2022/03/17 09:47:38;;;;;;;;;6.67;6.33;;;;;12.04;54.62;102791.19;5077838;27;45276;-43
2022/03/17 09:50:07;;;;;;;;;13.33;7.00;;;;;12.11;53.19;102798.66;5077837;27;45505;-46
2022/03/17 09:52:37;;;;;;;;;6.00;6.00;;;;;12.16;54.05;102801.00;5077574;27;45441;-46
2022/03/17 09:55:04;;;;;;;;;12.00;8.00;;;;;12.14;52.89;102794.94;5077700;27;45353;-45
2022/03/17 09:57:31;;;;;;;;;8.00;8.00;;;;;12.09;53.08;102797.91;5077778;27;45261;-46
2022/03/17 09:59:58;;;;;;;;;11.33;7.33;;;;;12.05;54.35;102800.91;5077724;27;45481;-43
2022/03/17 10:02:24;;;;;;;;;11.00;10.00;;;;;12.03;53.88;102814.34;5077214;27;47357;-47
2022/03/17 10:04:50;;;;;;;;;11.00;7.00;;;;;11.99;53.26;102791.50;5077384;27;45429;-44
2022/03/17 10:07:18;;;;;;;;;7.00;5.67;;;;;12.12;53.38;102808.38;5077745;28;45306;-45
2022/03/17 10:09:44;;;;;;;;;12.00;11.00;;;;;12.14;53.59;102817.13;5077775;27;45338;-47
2022/03/17 10:12:12;;;;;;;;;10.33;8.33;;;;;12.15;53.30;102815.31;5077122;27;46968;-44
2022/03/17 10:14:40;;;;;;;;;12.33;11.00;;;;;12.16;53.46;102817.03;5077447;27;45386;-44
2022/03/17 10:17:28;;;;;;;;;10.67;7.00;;;;;12.13;52.96;102811.88;5077245;27;45376;-44
2022/03/17 10:20:31;;;;;;;;;15.67;9.67;;;;;12.01;53.10;102810.94;5077532;27;45528;-45
2022/03/17 10:23:02;;;;;;;;;7.67;7.00;;;;;12.09;53.21;102832.59;5076971;27;47278;-44
2022/03/17 10:25:30;;;;;;;;;8.00;7.33;;;;;12.10;53.47;102823.66;5076935;27;45501;-45
2022/03/17 10:27:56;;;;;;;;;10.00;8.00;;;;;12.14;52.81;102832.31;5077309;27;45532;-44
2022/03/17 10:30:30;;;;;;;;;11.67;10.00;;;;;12.18;52.90;102841.81;5077253;27;45444;-43
2022/03/17 10:33:03;;;;;;;;;10.67;10.00;;;;;12.14;53.09;102845.63;5076707;27;47182;-43
2022/03/17 10:35:34;;;;;;;;;10.00;10.00;;;;;12.17;53.21;102842.72;5076866;28;45394;-46
2022/03/17 10:38:16;;;;;;;;;15.67;8.00;;;;;12.16;52.85;102835.69;5077415;27;45437;-42
2022/03/17 10:40:43;;;;;;;;;12.67;4.67;;;;;12.28;52.54;102850.88;5077485;27;45402;-42
2022/03/17 10:43:23;;;;;;;;;10.00;7.00;;;;;12.30;52.92;102846.25;5077000;27;46779;-44
2022/03/17 10:46:13;;;;;;;;;12.00;8.00;;;;;12.39;52.20;102848.31;5075783;27;45370;-46
2022/03/17 10:49:01;;;;;;;;;16.00;8.00;;;;;12.49;52.32;102856.53;5023787;27;45433;-43
2022/03/17 10:51:33;;;;;;;;;5.67;5.67;;;;;12.50;53.08;102852.88;4972911;28;45462;-45
2022/03/17 10:54:08;;;;;;;;;7.67;5.67;;;;;12.53;51.88;102863.34;4972825;28;45503;-44
2022/03/17 10:56:36;;;;;;;;;13.00;10.00;;;;;12.58;51.26;102857.69;4972919;28;45363;-43
2022/03/17 10:59:02;;;;;;;;;7.00;7.00;;;;;12.61;51.88;102866.34;4972804;28;45364;-43
2022/03/17 11:01:47;;;;;;;;;7.00;6.67;;;;;12.54;51.44;102864.19;4972373;28;45350;-46
2022/03/17 11:04:12;;;;;;;;;12.00;7.00;;;;;12.51;51.06;102867.06;4972441;28;46038;-45
2022/03/17 11:06:39;;;;;;;;;8.00;8.00;;;;;12.49;51.54;102873.38;4971899;28;45403;-46
2022/03/17 11:09:08;;;;;;;;;12.67;11.67;;;;;12.49;51.40;102864.53;4972559;28;45401;-42
2022/03/17 11:11:37;;;;;;;;;10.33;8.00;;;;;12.45;51.23;102869.22;4972142;28;45484;-46
2022/03/17 11:14:04;;;;;;;;;11.00;8.00;;;;;12.52;50.87;102875.00;4972128;28;46011;-43
2022/03/17 11:16:39;;;;;;;;;13.33;8.00;;;;;12.53;52.35;102875.84;4972355;28;45492;-46
2022/03/17 11:19:07;;;;;;;;;12.00;8.00;;;;;12.54;50.87;102881.06;4972333;28;45418;-43
2022/03/17 11:21:33;;;;;;;;;11.67;8.33;;;;;12.57;51.55;102880.00;4972559;28;45413;-43
2022/03/17 11:24:04;;;;;;;;;13.33;7.67;;;;;12.61;50.88;102884.19;4971843;28;45953;-47
2022/03/17 11:26:37;;;;;;;;;11.33;10.67;;;;;12.66;52.05;102882.88;4972092;28;45505;-45
2022/03/17 11:29:13;;;;;;;;;10.50;9.50;;;;;12.60;51.76;102883.34;4971411;28;46015;-46